Time;durP1;ratioP1;P1;durP2;ratioP2;P2;SDS_P1;SDS_P2;PMS_P1;PMS_P2;Temp;Humidity;BMP_temperature;BMP_pressure;BME280_temperature;BME280_humidity;BME280_pressure;Samples;Min_cycle;Max_cycle;Signal;HPM_P1;HPM_P2
2023/10/17 00:00:25;;;;;;;14.02;8.68;;;;;;;;;;2080187;28;20046;-76
2023/10/17 00:01:57;;;;;;;16.52;7.75;;;;;;;;;;2081949;28;20026;-77
2023/10/17 00:03:18;;;;;;;10.00;7.72;;;;;;;;;;2073591;28;20026;-76
2023/10/17 00:04:41;;;;;;;11.43;7.97;;;;;;;;;;2081176;28;20462;-77
2023/10/17 00:06:02;;;;;;;11.82;7.88;;;;;;;;;;2088708;28;20044;-76
2023/10/17 00:07:23;;;;;;;14.55;8.68;;;;;;;;;;2082085;28;20049;-76
2023/10/17 00:08:50;;;;;;;9.35;7.13;;;;;;;;;;2076790;28;20030;-76
2023/10/17 00:10:15;;;;;;;10.73;7.60;;;;;;;;;;2080622;28;20045;-76
2023/10/17 00:11:51;;;;;;;14.25;7.78;;;;;;;;;;2080209;28;20043;-77
2023/10/17 00:13:31;;;;;;;15.65;9.13;;;;;;;;;;2073121;28;20022;-76
2023/10/17 00:16:13;;;;;;;12.00;8.20;;;;;;;;;;2073873;28;20045;-77
2023/10/17 00:17:33;;;;;;;14.15;7.90;;;;;;;;;;2076949;28;20022;-77
2023/10/17 00:18:54;;;;;;;9.60;8.57;;;;;;;;;;2078649;28;20021;-76
2023/10/17 00:20:18;;;;;;;14.77;8.77;;;;;;;;;;2082369;28;20389;-76
2023/10/17 00:21:41;;;;;;;13.05;8.60;;;;;;;;;;2080810;28;20038;-77
2023/10/17 00:23:04;;;;;;;10.07;8.10;;;;;;;;;;2089145;28;20087;-76
2023/10/17 00:24:25;;;;;;;11.70;8.88;;;;;;;;;;2083684;28;20030;-77
2023/10/17 00:25:49;;;;;;;14.73;8.07;;;;;;;;;;2083561;28;20033;-77
2023/10/17 00:27:09;;;;;;;13.07;8.35;;;;;;;;;;2079065;28;20562;-76
2023/10/17 00:28:33;;;;;;;13.45;9.07;;;;;;;;;;2084470;28;20034;-76
2023/10/17 00:29:54;;;;;;;8.93;8.02;;;;;;;;;;2088575;28;20044;-76
2023/10/17 00:31:16;;;;;;;13.82;8.63;;;;;;;;;;2087141;28;20544;-76
2023/10/17 00:32:41;;;;;;;11.75;8.07;;;;;;;;;;2082027;28;20101;-77
2023/10/17 00:34:12;;;;;;;12.93;8.60;;;;;;;;;;2090388;28;20044;-76
2023/10/17 00:35:38;;;;;;;10.10;8.13;;;;;;;;;;2082723;28;20509;-76
2023/10/17 00:37:35;;;;;;;9.82;8.73;;;;;;;;;;2081584;28;20029;-76
2023/10/17 00:38:46;;;;;;;15.90;8.80;;;;;;;;;;2082546;28;20025;-76
2023/10/17 00:40:26;;;;;;;13.98;9.10;;;;;;;;;;2080203;28;20053;-76
2023/10/17 00:41:50;;;;;;;10.98;8.05;;;;;;;;;;2091197;28;20025;-71
2023/10/17 00:43:14;;;;;;;10.30;8.30;;;;;;;;;;2079468;28;20420;-72
2023/10/17 00:44:38;;;;;;;10.70;8.50;;;;;;;;;;2086156;28;20029;-71
2023/10/17 00:45:59;;;;;;;11.32;8.35;;;;;;;;;;2083658;28;20549;-71
2023/10/17 00:47:22;;;;;;;14.10;9.13;;;;;;;;;;2076243;28;20034;-72
2023/10/17 00:48:43;;;;;;;14.88;8.35;;;;;;;;;;2080939;28;20357;-71
2023/10/17 00:50:12;;;;;;;12.32;8.40;;;;;;;;;;2076254;28;20033;-71
2023/10/17 00:51:33;;;;;;;10.15;8.27;;;;;;;;;;2082028;28;20033;-71
2023/10/17 00:52:56;;;;;;;13.43;8.00;;;;;;;;;;2081373;28;20389;-71
2023/10/17 00:54:18;;;;;;;12.35;8.95;;;;;;;;;;2082837;28;20500;-71
2023/10/17 00:55:40;;;;;;;10.82;8.35;;;;;;;;;;2073714;28;20030;-71
2023/10/17 00:57:05;;;;;;;10.45;8.20;;;;;;;;;;2080244;28;20025;-71
2023/10/17 00:58:27;;;;;;;11.57;8.38;;;;;;;;;;2081319;28;20030;-72
2023/10/17 00:59:52;;;;;;;8.82;7.90;;;;;;;;;;2081854;28;20057;-71
2023/10/17 01:01:16;;;;;;;12.82;9.00;;;;;;;;;;2078448;28;20500;-72
2023/10/17 01:02:44;;;;;;;10.63;7.93;;;;;;;;;;2081361;28;20022;-72
2023/10/17 01:04:05;;;;;;;15.07;8.73;;;;;;;;;;2081465;28;20030;-72
2023/10/17 01:05:26;;;;;;;12.25;9.10;;;;;;;;;;2075189;28;20029;-71
2023/10/17 01:06:53;;;;;;;15.60;8.68;;;;;;;;;;2079409;28;20033;-72
2023/10/17 01:08:15;;;;;;;13.45;9.45;;;;;;;;;;2081959;28;20026;-72
2023/10/17 01:09:36;;;;;;;12.43;7.68;;;;;;;;;;2081526;28;20053;-72
2023/10/17 01:10:57;;;;;;;17.10;9.07;;;;;;;;;;2081759;28;20029;-70
2023/10/17 01:12:20;;;;;;;12.25;9.05;;;;;;;;;;2072966;28;20033;-70
2023/10/17 01:13:42;;;;;;;12.02;8.25;;;;;;;;;;2079565;28;20038;-71
2023/10/17 01:15:02;;;;;;;10.52;7.60;;;;;;;;;;2084321;28;20029;-71
2023/10/17 01:16:24;;;;;;;13.75;8.70;;;;;;;;;;2087180;28;20052;-71
2023/10/17 01:17:45;;;;;;;17.50;9.63;;;;;;;;;;2083522;28;20432;-71
2023/10/17 01:19:10;;;;;;;11.82;8.88;;;;;;;;;;2080135;28;20034;-72
2023/10/17 01:20:31;;;;;;;14.18;9.25;;;;;;;;;;2073341;28;20034;-71
2023/10/17 01:21:52;;;;;;;11.98;7.80;;;;;;;;;;2075738;28;20022;-71
2023/10/17 01:23:13;;;;;;;11.13;9.15;;;;;;;;;;2061899;28;20402;-71
2023/10/17 01:24:34;;;;;;;12.45;8.40;;;;;;;;;;2071328;28;20551;-71
2023/10/17 01:25:56;;;;;;;12.73;8.48;;;;;;;;;;2080643;28;20408;-71
2023/10/17 01:27:17;;;;;;;18.42;9.27;;;;;;;;;;2073475;28;20500;-72
2023/10/17 01:28:38;;;;;;;14.43;8.73;;;;;;;;;;2077603;28;20038;-71
2023/10/17 01:30:00;;;;;;;13.55;8.77;;;;;;;;;;2083899;28;20037;-72
2023/10/17 01:31:25;;;;;;;11.07;8.50;;;;;;;;;;2088145;28;21480;-71
2023/10/17 01:32:47;;;;;;;25.77;9.68;;;;;;;;;;2079303;28;20419;-72
2023/10/17 01:34:08;;;;;;;13.13;9.77;;;;;;;;;;2082070;28;20025;-72
2023/10/17 01:35:30;;;;;;;16.73;9.88;;;;;;;;;;2088923;28;20036;-72
2023/10/17 01:36:50;;;;;;;12.25;8.13;;;;;;;;;;2083859;28;20393;-71
2023/10/17 01:38:13;;;;;;;9.57;8.13;;;;;;;;;;2080937;28;20033;-71
2023/10/17 01:39:34;;;;;;;;;;;;;;;;;;2076024;28;20025;-70
2023/10/17 01:40:57;;;;;;;15.48;9.68;;;;;;;;;;2076870;28;19909;-71
2023/10/17 01:42:20;;;;;;;13.98;8.70;;;;;;;;;;2072840;28;20029;-71
2023/10/17 01:43:40;;;;;;;15.70;9.00;;;;;;;;;;2072318;28;20064;-71
2023/10/17 01:45:02;;;;;;;17.15;9.52;;;;;;;;;;2072606;28;20022;-71
2023/10/17 01:46:22;;;;;;;9.85;8.13;;;;;;;;;;2072531;28;20154;-71
2023/10/17 01:47:43;;;;;;;18.00;8.95;;;;;;;;;;2072104;28;20014;-70
2023/10/17 01:49:10;;;;;;;10.00;8.45;;;;;;;;;;2073021;28;20069;-71
2023/10/17 01:50:33;;;;;;;15.10;9.50;;;;;;;;;;2072860;28;20045;-71
2023/10/17 01:51:57;;;;;;;16.25;8.98;;;;;;;;;;2073297;28;20056;-71
2023/10/17 01:53:18;;;;;;;11.48;8.48;;;;;;;;;;2074331;28;20026;-72
2023/10/17 01:54:39;;;;;;;11.85;8.75;;;;;;;;;;2071908;28;20521;-71
2023/10/17 01:56:06;;;;;;;14.07;8.93;;;;;;;;;;2081120;28;20033;-72
2023/10/17 01:57:29;;;;;;;14.55;9.18;;;;;;;;;;2073078;28;20029;-72
2023/10/17 01:58:50;;;;;;;10.95;8.75;;;;;;;;;;2069874;28;20053;-71
2023/10/17 02:00:26;;;;;;;12.13;10.15;;;;;;;;;;2072024;28;20034;-72
2023/10/17 02:01:48;;;;;;;9.45;8.50;;;;;;;;;;2073271;28;20026;-71
2023/10/17 02:03:12;;;;;;;12.00;9.75;;;;;;;;;;2072669;28;20064;-71
2023/10/17 02:04:35;;;;;;;14.35;9.50;;;;;;;;;;2079015;28;20515;-71
2023/10/17 02:05:56;;;;;;;13.32;9.50;;;;;;;;;;2075529;28;20033;-71
2023/10/17 02:07:18;;;;;;;14.55;9.30;;;;;;;;;;2065226;28;20034;-71
2023/10/17 02:08:39;;;;;;;15.95;8.60;;;;;;;;;;2072540;28;20034;-72
2023/10/17 02:10:06;;;;;;;12.30;8.98;;;;;;;;;;2072741;28;20141;-71
2023/10/17 02:11:26;;;;;;;14.98;9.18;;;;;;;;;;2072523;28;20397;-70
2023/10/17 02:12:48;;;;;;;16.70;9.77;;;;;;;;;;2067766;28;20031;-72
2023/10/17 02:14:09;;;;;;;15.52;9.38;;;;;;;;;;2076728;28;20269;-72
2023/10/17 02:15:30;;;;;;;13.90;9.20;;;;;;;;;;2066312;28;20038;-71
2023/10/17 02:16:51;;;;;;;9.38;8.38;;;;;;;;;;2064367;28;20049;-71
2023/10/17 02:18:12;;;;;;;14.27;9.05;;;;;;;;;;2072230;28;20105;-71
2023/10/17 02:19:33;;;;;;;15.00;9.37;;;;;;;;;;2073548;28;20481;-71
2023/10/17 02:21:02;;;;;;;11.63;8.30;;;;;;;;;;2070548;28;20029;-71
2023/10/17 02:22:26;;;;;;;10.27;9.20;;;;;;;;;;2066060;28;20030;-71
2023/10/17 02:23:50;;;;;;;13.32;9.15;;;;;;;;;;2072188;28;20021;-71
2023/10/17 02:25:14;;;;;;;12.95;8.38;;;;;;;;;;2065079;28;20037;-71
2023/10/17 02:26:42;;;;;;;13.98;8.77;;;;;;;;;;2073111;28;20026;-71
2023/10/17 02:28:03;;;;;;;14.55;9.68;;;;;;;;;;2065919;28;20029;-71
2023/10/17 02:29:26;;;;;;;11.32;8.80;;;;;;;;;;2077456;28;20096;-70
2023/10/17 02:30:47;;;;;;;13.07;9.18;;;;;;;;;;2075931;28;20044;-71
2023/10/17 02:32:14;;;;;;;13.00;9.45;;;;;;;;;;2072899;28;20025;-71
2023/10/17 02:33:34;;;;;;;12.88;9.18;;;;;;;;;;2072726;28;20034;-71
2023/10/17 02:34:55;;;;;;;12.02;8.88;;;;;;;;;;2067113;28;20026;-71
2023/10/17 02:36:16;;;;;;;12.18;9.15;;;;;;;;;;2070517;28;20030;-71
2023/10/17 02:37:37;;;;;;;12.77;9.88;;;;;;;;;;2071111;28;20049;-72
2023/10/17 02:38:58;;;;;;;10.55;8.95;;;;;;;;;;2073357;28;20033;-72
2023/10/17 02:40:23;;;;;;;15.23;8.85;;;;;;;;;;2072565;28;20049;-71
2023/10/17 02:41:46;;;;;;;12.95;9.70;;;;;;;;;;2073715;28;20034;-71
2023/10/17 02:43:12;;;;;;;15.70;9.13;;;;;;;;;;2072209;28;20034;-72
2023/10/17 02:44:32;;;;;;;12.35;9.15;;;;;;;;;;2072138;28;20033;-71
2023/10/17 02:45:53;;;;;;;13.73;10.38;;;;;;;;;;2082899;28;20052;-71
2023/10/17 02:47:15;;;;;;;20.05;10.18;;;;;;;;;;2082995;28;20461;-71
2023/10/17 02:48:39;;;;;;;15.80;10.00;;;;;;;;;;2075136;28;20034;-72
2023/10/17 02:50:15;;;;;;;13.30;10.57;;;;;;;;;;2072146;28;20029;-70
2023/10/17 02:51:43;;;;;;;17.30;9.43;;;;;;;;;;2064888;28;20126;-71
2023/10/17 02:53:04;;;;;;;14.15;10.23;;;;;;;;;;2070069;28;20030;-71
2023/10/17 02:54:27;;;;;;;20.02;11.43;;;;;;;;;;2066402;28;20085;-71
2023/10/17 02:55:48;;;;;;;18.13;11.07;;;;;;;;;;2069190;28;20026;-71
2023/10/17 02:57:09;;;;;;;16.63;10.55;;;;;;;;;;2079605;28;20030;-72
2023/10/17 02:58:30;;;;;;;18.25;10.20;;;;;;;;;;2075597;28;20088;-72
2023/10/17 02:59:57;;;;;;;16.70;9.70;;;;;;;;;;2073685;28;20037;-71
2023/10/17 03:01:18;;;;;;;17.15;10.38;;;;;;;;;;2080659;28;20026;-71
2023/10/17 03:02:40;;;;;;;18.17;11.27;;;;;;;;;;2088412;28;20067;-80
2023/10/17 03:04:08;;;;;;;15.75;10.95;;;;;;;;;;2083893;28;20044;-80
2023/10/17 03:05:29;;;;;;;19.42;10.73;;;;;;;;;;2081163;28;20029;-80
2023/10/17 03:06:56;;;;;;;24.00;11.25;;;;;;;;;;2081429;28;20413;-79
2023/10/17 03:08:17;;;;;;;15.88;11.68;;;;;;;;;;2082220;28;20436;-79
2023/10/17 03:09:39;;;;;;;20.73;12.45;;;;;;;;;;2089413;28;20041;-81
2023/10/17 03:11:00;;;;;;;18.02;12.20;;;;;;;;;;2087706;28;20033;-79
2023/10/17 03:12:28;;;;;;;19.98;11.90;;;;;;;;;;2073638;28;20041;-80
2023/10/17 03:13:49;;;;;;;16.00;11.40;;;;;;;;;;2083229;28;20037;-80
2023/10/17 03:16:39;;;;;;;22.58;13.10;;;;;;;;;;2080668;28;20045;-80
2023/10/17 03:18:00;;;;;;;17.45;12.25;;;;;;;;;;2078956;28;20182;-80
2023/10/17 03:19:25;;;;;;;24.00;13.35;;;;;;;;;;2084955;28;20037;-80
2023/10/17 03:20:52;;;;;;;15.57;11.82;;;;;;;;;;2073823;28;20044;-80
2023/10/17 03:22:16;;;;;;;18.85;11.93;;;;;;;;;;2081001;28;20025;-79
2023/10/17 03:23:37;;;;;;;22.85;13.40;;;;;;;;;;2090030;28;20028;-80
2023/10/17 03:25:02;;;;;;;23.05;12.82;;;;;;;;;;2083438;28;20045;-74
2023/10/17 03:26:24;;;;;;;17.75;11.57;;;;;;;;;;2079663;28;20025;-80
2023/10/17 03:27:49;;;;;;;18.90;12.70;;;;;;;;;;2072897;28;20018;-81
2023/10/17 03:29:18;;;;;;;23.30;12.52;;;;;;;;;;2078944;28;20528;-80
2023/10/17 03:30:39;;;;;;;17.45;12.05;;;;;;;;;;2088804;28;20503;-80
2023/10/17 03:32:04;;;;;;;19.27;13.00;;;;;;;;;;2084017;28;20404;-79
2023/10/17 03:33:27;;;;;;;23.15;13.45;;;;;;;;;;2080831;28;20038;-80
2023/10/17 03:34:56;;;;;;;21.08;13.50;;;;;;;;;;2079453;28;20366;-81
2023/10/17 03:38:00;;;;;;;21.95;12.05;;;;;;;;;;2065315;28;20038;-80
2023/10/17 03:39:21;;;;;;;;;;;;;;;;;;2073648;28;20022;-80
2023/10/17 03:40:52;;;;;;;22.83;12.73;;;;;;;;;;2060587;28;19914;-81
2023/10/17 03:42:29;;;;;;;21.27;13.48;;;;;;;;;;2055529;28;20359;-79
2023/10/17 03:43:53;;;;;;;22.05;12.52;;;;;;;;;;2055617;28;20027;-79
2023/10/17 03:45:17;;;;;;;26.75;13.95;;;;;;;;;;2050672;28;20024;-80
2023/10/17 03:46:38;;;;;;;20.77;13.68;;;;;;;;;;2063583;28;20030;-80
2023/10/17 03:48:04;;;;;;;21.13;14.48;;;;;;;;;;2065366;28;20030;-80
2023/10/17 03:49:36;;;;;;;26.48;14.23;;;;;;;;;;2058298;28;20034;-80
2023/10/17 03:50:59;;;;;;;21.63;13.00;;;;;;;;;;2056663;28;20050;-81
2023/10/17 03:52:20;;;;;;;22.85;14.05;;;;;;;;;;2066295;28;20450;-80
2023/10/17 03:53:46;;;;;;;22.40;13.45;;;;;;;;;;2064406;28;20069;-80
2023/10/17 03:55:10;;;;;;;27.60;15.23;;;;;;;;;;2064439;28;20030;-80
2023/10/17 03:56:36;;;;;;;22.70;13.07;;;;;;;;;;2064322;28;20038;-80
2023/10/17 03:57:59;;;;;;;27.75;15.18;;;;;;;;;;2070758;28;20030;-79
2023/10/17 03:59:30;;;;;;;23.88;14.52;;;;;;;;;;2067335;28;20034;-80
2023/10/17 04:00:52;;;;;;;24.30;13.93;;;;;;;;;;2062013;28;20042;-80
2023/10/17 04:02:18;;;;;;;22.88;14.15;;;;;;;;;;2057848;28;20039;-80
2023/10/17 04:03:39;;;;;;;24.10;14.60;;;;;;;;;;2058577;28;20058;-80
2023/10/17 04:05:07;;;;;;;26.88;15.52;;;;;;;;;;2051001;28;20027;-80
2023/10/17 04:07:57;;;;;;;22.33;15.13;;;;;;;;;;2058147;28;20471;-80
2023/10/17 04:09:25;;;;;;;27.88;16.58;;;;;;;;;;2055858;28;20057;-79
2023/10/17 04:10:49;;;;;;;30.05;15.25;;;;;;;;;;2077711;28;20038;-80
2023/10/17 04:12:18;;;;;;;24.38;15.35;;;;;;;;;;2081337;28;20471;-76
2023/10/17 04:13:39;;;;;;;28.17;15.65;;;;;;;;;;2070130;28;20472;-77
2023/10/17 04:15:04;;;;;;;26.17;16.20;;;;;;;;;;2072580;28;20044;-77
2023/10/17 04:16:34;;;;;;;21.75;15.02;;;;;;;;;;2067690;28;20498;-77
2023/10/17 04:17:58;;;;;;;22.40;15.57;;;;;;;;;;2065552;28;20036;-77
2023/10/17 04:19:20;;;;;;;25.73;15.95;;;;;;;;;;2067290;28;20041;-76
2023/10/17 04:20:46;;;;;;;29.23;17.45;;;;;;;;;;2057570;28;20413;-76
2023/10/17 04:22:07;;;;;;;27.17;15.13;;;;;;;;;;2058734;28;20501;-76
2023/10/17 04:23:30;;;;;;;27.55;16.20;;;;;;;;;;2064772;28;20038;-77
2023/10/17 04:24:51;;;;;;;25.42;16.75;;;;;;;;;;2071648;28;20072;-75
2023/10/17 04:26:18;;;;;;;26.83;17.23;;;;;;;;;;2073248;28;20029;-76
2023/10/17 04:27:39;;;;;;;28.27;16.48;;;;;;;;;;2079555;28;20018;-76
2023/10/17 04:29:10;;;;;;;29.33;17.40;;;;;;;;;;2070525;28;20038;-76
2023/10/17 04:30:46;;;;;;;26.17;16.07;;;;;;;;;;2054519;28;20043;-76
2023/10/17 04:32:13;;;;;;;23.13;14.93;;;;;;;;;;2061605;28;20044;-76
2023/10/17 04:33:34;;;;;;;29.00;16.98;;;;;;;;;;2064086;28;20030;-77
2023/10/17 04:34:55;;;;;;;27.23;16.10;;;;;;;;;;2058431;28;20038;-75
2023/10/17 04:36:17;;;;;;;29.05;15.05;;;;;;;;;;2058119;28;20046;-76
2023/10/17 04:37:44;;;;;;;31.38;17.80;;;;;;;;;;2067781;28;20053;-77
2023/10/17 04:40:42;;;;;;;29.77;16.20;;;;;;;;;;2064928;28;20035;-76
2023/10/17 04:42:06;;;;;;;29.88;15.65;;;;;;;;;;2070505;28;20033;-76
2023/10/17 04:43:53;;;;;;;30.35;16.55;;;;;;;;;;2074548;28;20034;-76
2023/10/17 04:45:14;;;;;;;33.92;16.90;;;;;;;;;;2073053;28;20038;-77
2023/10/17 04:46:49;;;;;;;28.77;17.13;;;;;;;;;;2066805;28;20034;-76
2023/10/17 04:48:17;;;;;;;29.60;16.35;;;;;;;;;;2065478;28;20042;-77
2023/10/17 04:49:39;;;;;;;33.15;18.85;;;;;;;;;;2070779;28;20546;-77
2023/10/17 04:51:13;;;;;;;35.47;16.58;;;;;;;;;;2068719;28;20042;-77
2023/10/17 04:52:44;;;;;;;29.98;18.17;;;;;;;;;;2064429;28;20035;-77
2023/10/17 04:54:22;;;;;;;29.52;17.15;;;;;;;;;;2066483;28;20449;-77
2023/10/17 04:56:01;;;;;;;28.55;17.05;;;;;;;;;;2065964;28;20045;-77
2023/10/17 04:57:34;;;;;;;32.95;18.25;;;;;;;;;;2064268;28;20092;-76
2023/10/17 04:59:02;;;;;;;33.10;18.73;;;;;;;;;;2064487;28;20038;-77
2023/10/17 05:03:50;;;;;;;33.80;17.95;;;;;;;;;;2065275;28;20500;-77
2023/10/17 05:08:17;;;;;;;29.13;17.38;;;;;;;;;;2064764;28;20039;-76
2023/10/17 06:16:51;;;;;;;27.90;17.20;;;;;;;;;;2062239;28;20026;-77
2023/10/17 06:17:46;;;;;;;28.75;17.08;;;;;;;;;;2062518;28;20521;-72
2023/10/17 06:19:09;;;;;;;26.88;16.35;;;;;;;;;;2064180;28;20038;-71
2023/10/17 06:27:43;;;;;;;29.45;16.38;;;;;;;;;;2049462;28;20031;-71
2023/10/17 06:30:05;;;;;;;28.25;17.70;;;;;;;;;;2063106;28;20023;-71
2023/10/17 06:30:35;;;;;;;27.10;17.23;;;;;;;;;;2064080;28;20034;-71
2023/10/17 06:33:19;;;;;;;23.95;15.90;;;;;;;;;;2064630;28;19910;-73
2023/10/17 06:34:42;;;;;;;34.05;16.25;;;;;;;;;;2072604;28;20034;-74
2023/10/17 06:36:13;;;;;;;28.48;17.15;;;;;;;;;;2068018;28;20041;-74
2023/10/17 06:37:34;;;;;;;34.25;17.60;;;;;;;;;;2078989;28;20139;-74
2023/10/17 06:38:56;;;;;;;34.97;18.10;;;;;;;;;;2079813;28;20052;-75
2023/10/17 06:40:17;;;;;;;22.75;15.95;;;;;;;;;;2075850;28;20523;-74
2023/10/17 06:41:38;;;;;;;28.00;16.50;;;;;;;;;;2074588;28;20029;-74
2023/10/17 06:42:59;;;;;;;24.92;16.13;;;;;;;;;;2080543;28;20029;-73
2023/10/17 06:44:23;;;;;;;27.10;15.65;;;;;;;;;;2077627;28;20022;-74
2023/10/17 06:45:51;;;;;;;24.10;17.15;;;;;;;;;;2080608;28;20025;-75
2023/10/17 06:47:18;;;;;;;27.05;15.93;;;;;;;;;;2073160;28;20045;-75
2023/10/17 06:48:48;;;;;;;26.27;15.75;;;;;;;;;;2080457;28;20028;-74
2023/10/17 06:51:36;;;;;;;26.17;15.73;;;;;;;;;;2071828;28;20088;-73
2023/10/17 06:53:02;;;;;;;21.67;15.32;;;;;;;;;;2079865;28;20504;-73
2023/10/17 06:54:25;;;;;;;24.92;16.73;;;;;;;;;;2078489;28;20044;-74
2023/10/17 06:55:47;;;;;;;24.45;16.50;;;;;;;;;;2072446;28;20460;-73
2023/10/17 06:57:23;;;;;;;24.52;16.13;;;;;;;;;;2070274;28;20084;-74
2023/10/17 06:58:44;;;;;;;28.05;16.65;;;;;;;;;;2088454;28;20017;-73
2023/10/17 07:00:24;;;;;;;24.90;16.57;;;;;;;;;;2082374;28;20144;-74
2023/10/17 07:01:48;;;;;;;31.83;17.77;;;;;;;;;;2079860;28;20435;-73
2023/10/17 07:03:15;;;;;;;26.05;15.45;;;;;;;;;;2088727;28;20025;-73
2023/10/17 07:04:37;;;;;;;25.35;16.08;;;;;;;;;;2082390;28;20476;-73
2023/10/17 07:06:03;;;;;;;29.70;17.02;;;;;;;;;;2080002;28;20028;-73
2023/10/17 07:07:31;;;;;;;26.70;17.00;;;;;;;;;;2091911;28;20087;-73
2023/10/17 07:08:52;;;;;;;23.00;16.75;;;;;;;;;;2081870;28;20025;-73
2023/10/17 07:11:52;;;;;;;26.65;17.50;;;;;;;;;;2079672;28;20428;-73
2023/10/17 07:13:32;;;;;;;28.38;15.80;;;;;;;;;;2080642;28;20087;-73
2023/10/17 07:14:56;;;;;;;26.65;17.67;;;;;;;;;;2079354;28;20033;-73
2023/10/17 07:16:18;;;;;;;27.77;16.60;;;;;;;;;;2088279;28;20059;-73
2023/10/17 07:17:50;;;;;;;23.13;16.98;;;;;;;;;;2082754;28;20037;-73
2023/10/17 07:22:25;;;;;;;29.52;16.80;;;;;;;;;;2079771;28;20033;-73
2023/10/17 07:23:48;;;;;;;22.35;16.23;;;;;;;;;;2081235;28;20025;-73
2023/10/17 07:25:16;;;;;;;26.42;17.00;;;;;;;;;;2088526;28;20021;-74
2023/10/17 07:26:38;;;;;;;28.20;17.30;;;;;;;;;;2075191;28;20492;-73
2023/10/17 07:28:02;;;;;;;24.85;17.15;;;;;;;;;;2078689;28;20036;-73
2023/10/17 07:29:23;;;;;;;24.60;17.70;;;;;;;;;;2084520;28;20033;-73
2023/10/17 07:30:51;;;;;;;28.05;17.25;;;;;;;;;;2080845;28;20052;-74
2023/10/17 07:32:25;;;;;;;28.90;17.38;;;;;;;;;;2080623;28;20444;-74
2023/10/17 07:35:30;;;;;;;27.58;16.58;;;;;;;;;;2081972;28;20037;-73
2023/10/17 07:38:30;;;;;;;31.95;17.67;;;;;;;;;;2081999;28;20381;-73
2023/10/17 07:41:36;;;;;;;26.35;16.85;;;;;;;;;;2083155;28;20132;-73
2023/10/17 07:43:00;;;;;;;28.00;17.67;;;;;;;;;;2081758;28;20036;-77
2023/10/17 07:44:27;;;;;;;29.77;18.08;;;;;;;;;;2080421;28;20052;-77
2023/10/17 07:45:55;;;;;;;24.48;16.77;;;;;;;;;;2082535;28;20163;-78
2023/10/17 07:47:33;;;;;;;29.08;18.08;;;;;;;;;;2081894;28;20033;-77
2023/10/17 07:49:03;;;;;;;31.60;17.38;;;;;;;;;;2078964;28;20037;-77
2023/10/17 07:50:25;;;;;;;25.75;17.38;;;;;;;;;;2081368;28;20037;-76
2023/10/17 07:51:48;;;;;;;26.17;16.73;;;;;;;;;;2082649;28;20045;-77
2023/10/17 07:53:09;;;;;;;28.02;16.80;;;;;;;;;;2087396;28;20570;-76
2023/10/17 07:54:30;;;;;;;27.00;16.92;;;;;;;;;;2082049;28;20091;-77
2023/10/17 07:55:52;;;;;;;26.42;16.35;;;;;;;;;;2074928;28;20026;-77
2023/10/17 07:57:22;;;;;;;29.80;17.23;;;;;;;;;;2078857;28;20460;-77
2023/10/17 07:58:43;;;;;;;32.10;17.67;;;;;;;;;;2082713;28;20037;-78
2023/10/17 08:00:24;;;;;;;24.07;15.77;;;;;;;;;;2081975;28;20025;-78
2023/10/17 08:01:46;;;;;;;29.65;17.27;;;;;;;;;;2081608;28;20437;-77
2023/10/17 08:03:14;;;;;;;27.20;16.45;;;;;;;;;;2073398;28;20417;-78
2023/10/17 08:04:36;;;;;;;30.15;17.60;;;;;;;;;;2080712;28;20040;-77
2023/10/17 08:07:24;;;;;;;26.98;16.20;;;;;;;;;;2081641;28;20033;-78
2023/10/17 08:08:45;;;;;;;26.15;16.90;;;;;;;;;;2082269;28;20068;-78
2023/10/17 08:10:10;;;;;;;27.80;15.90;;;;;;;;;;2076855;28;20034;-77
2023/10/17 08:11:31;;;;;;;29.65;16.38;;;;;;;;;;2075690;28;20042;-78
2023/10/17 08:12:52;;;;;;;28.27;17.63;;;;;;;;;;2067683;28;20034;-78
2023/10/17 08:14:18;;;;;;;27.10;15.40;;;;;;;;;;2075248;28;20497;-78
2023/10/17 08:15:46;;;;;;;22.95;14.20;;;;;;;;;;2073705;28;20037;-77
2023/10/17 08:17:09;;;;;;;25.92;15.35;;;;;;;;;;2073834;28;20037;-77
2023/10/17 08:18:39;;;;;;;23.98;15.35;;;;;;;;;;2072740;28;20448;-78
2023/10/17 08:21:33;;;;;;;21.48;13.45;;;;;;;;;;2070963;28;20050;-77
2023/10/17 08:22:55;;;;;;;19.75;13.20;;;;;;;;;;2073448;28;20440;-78
2023/10/17 08:24:25;;;;;;;22.02;13.43;;;;;;;;;;2074462;28;20026;-78
2023/10/17 08:25:56;;;;;;;23.10;13.25;;;;;;;;;;2072071;28;20034;-78
2023/10/17 08:30:17;;;;;;;22.92;12.85;;;;;;;;;;2074479;28;20053;-78
2023/10/17 08:31:44;;;;;;;21.20;12.85;;;;;;;;;;2072358;28;20049;-78
2023/10/17 08:34:40;;;;;;;22.65;12.32;;;;;;;;;;2072872;28;20026;-79
2023/10/17 08:36:01;;;;;;;19.15;12.20;;;;;;;;;;2073968;28;20482;-77
2023/10/17 08:37:40;;;;;;;21.05;11.85;;;;;;;;;;2073177;28;20393;-78
2023/10/17 08:39:03;;;;;;;24.30;13.10;;;;;;;;;;2074631;28;20136;-78
2023/10/17 08:40:40;;;;;;;23.45;12.38;;;;;;;;;;2072207;28;20026;-79
2023/10/17 08:43:41;;;;;;;20.48;11.15;;;;;;;;;;2075317;28;20026;-78
2023/10/17 08:45:04;;;;;;;19.40;12.07;;;;;;;;;;2075138;28;20398;-78
2023/10/17 08:46:25;;;;;;;20.88;12.32;;;;;;;;;;2073119;28;20512;-78
2023/10/17 08:47:46;;;;;;;21.15;12.63;;;;;;;;;;2084477;28;20025;-77
2023/10/17 08:49:10;;;;;;;18.70;10.65;;;;;;;;;;2075575;28;20385;-78
2023/10/17 08:50:39;;;;;;;19.23;11.13;;;;;;;;;;2070786;28;20117;-77
2023/10/17 08:52:00;;;;;;;16.25;11.90;;;;;;;;;;2080245;28;20033;-78
2023/10/17 08:53:21;;;;;;;20.50;12.48;;;;;;;;;;2079278;28;20026;-74
2023/10/17 08:54:42;;;;;;;20.05;12.27;;;;;;;;;;2081123;28;20064;-74
2023/10/17 08:56:07;;;;;;;18.23;12.60;;;;;;;;;;2089011;28;20025;-74
2023/10/17 08:57:28;;;;;;;17.85;11.95;;;;;;;;;;2084766;28;20029;-74
2023/10/17 08:59:03;;;;;;;16.58;12.00;;;;;;;;;;2089061;28;20021;-75
2023/10/17 09:00:48;;;;;;;19.00;11.57;;;;;;;;;;2083202;28;20030;-74
2023/10/17 09:03:55;;;;;;;15.68;11.82;;;;;;;;;;2073470;28;20038;-75
2023/10/17 09:05:26;;;;;;;16.33;10.80;;;;;;;;;;2074045;28;20420;-74
2023/10/17 09:06:49;;;;;;;16.92;10.13;;;;;;;;;;2073586;28;20042;-75
2023/10/17 09:08:11;;;;;;;16.38;10.65;;;;;;;;;;2073142;28;20033;-75
2023/10/17 09:09:33;;;;;;;15.80;10.82;;;;;;;;;;2073248;28;20022;-75
2023/10/17 09:11:07;;;;;;;15.52;10.60;;;;;;;;;;2076545;28;20044;-74
2023/10/17 09:12:28;;;;;;;18.35;10.70;;;;;;;;;;2071485;28;20045;-74
2023/10/17 09:15:29;;;;;;;14.80;10.20;;;;;;;;;;2072935;28;20048;-75
2023/10/17 09:18:48;;;;;;;18.23;10.30;;;;;;;;;;2079831;28;20025;-75
2023/10/17 09:20:12;;;;;;;15.52;10.15;;;;;;;;;;2066172;28;20081;-75
2023/10/17 09:21:33;;;;;;;14.88;12.10;;;;;;;;;;2083242;28;20445;-76
2023/10/17 09:22:54;;;;;;;16.83;9.43;;;;;;;;;;2075497;28;20019;-75
2023/10/17 09:24:29;;;;;;;14.68;10.23;;;;;;;;;;2069585;28;20030;-75
2023/10/17 09:25:54;;;;;;;14.13;9.75;;;;;;;;;;2081727;28;20022;-75
2023/10/17 09:27:15;;;;;;;15.88;10.27;;;;;;;;;;2075666;28;20393;-75
2023/10/17 09:28:37;;;;;;;15.32;9.23;;;;;;;;;;2073202;28;20505;-76
2023/10/17 09:29:59;;;;;;;14.63;9.20;;;;;;;;;;2073310;28;20052;-75
2023/10/17 09:31:20;;;;;;;15.20;10.85;;;;;;;;;;2073427;28;20033;-75
2023/10/17 09:32:41;;;;;;;16.05;10.73;;;;;;;;;;2068488;28;20034;-75
2023/10/17 09:34:04;;;;;;;15.48;10.07;;;;;;;;;;2074662;28;20042;-76
2023/10/17 09:35:26;;;;;;;14.75;9.27;;;;;;;;;;2065889;28;20038;-75
2023/10/17 09:36:48;;;;;;;12.48;8.90;;;;;;;;;;2065225;28;20042;-75
2023/10/17 09:38:11;;;;;;;16.55;9.52;;;;;;;;;;2073056;28;20026;-75
2023/10/17 09:39:33;;;;;;;13.07;9.38;;;;;;;;;;2079484;28;20274;-75
2023/10/17 09:40:57;;;;;;;14.88;9.27;;;;;;;;;;2068401;28;20341;-75
2023/10/17 09:42:19;;;;;;;16.13;9.88;;;;;;;;;;2081449;28;20037;-73
2023/10/17 09:43:41;;;;;;;12.77;9.45;;;;;;;;;;2081733;28;20025;-74
2023/10/17 09:45:02;;;;;;;12.30;9.35;;;;;;;;;;2073129;28;20026;-72
2023/10/17 09:46:26;;;;;;;15.60;9.45;;;;;;;;;;2074252;28;20033;-73
2023/10/17 09:47:54;;;;;;;12.18;9.15;;;;;;;;;;2076564;28;20033;-73
2023/10/17 09:49:17;;;;;;;17.38;8.90;;;;;;;;;;2081708;28;20481;-73
2023/10/17 09:50:38;;;;;;;12.80;8.98;;;;;;;;;;2081960;28;20476;-74
2023/10/17 09:52:00;;;;;;;13.85;8.38;;;;;;;;;;2080779;28;20041;-73
2023/10/17 09:53:22;;;;;;;;;;;;;;;;;;2081374;28;20026;-73
2023/10/17 09:54:46;;;;;;;12.35;9.65;;;;;;;;;;2089122;28;19909;-73
2023/10/17 09:56:09;;;;;;;16.05;10.35;;;;;;;;;;2084558;28;20022;-73
2023/10/17 09:57:31;;;;;;;15.23;8.02;;;;;;;;;;2081063;28;20033;-73
2023/10/17 09:58:53;;;;;;;17.70;9.02;;;;;;;;;;2079817;28;20080;-74
2023/10/17 10:00:27;;;;;;;11.07;8.57;;;;;;;;;;2081836;28;20516;-74
2023/10/17 10:01:49;;;;;;;11.63;7.88;;;;;;;;;;2079617;28;20548;-73
2023/10/17 10:03:11;;;;;;;14.07;9.07;;;;;;;;;;2089579;28;20055;-79
2023/10/17 10:04:32;;;;;;;12.10;9.43;;;;;;;;;;2082365;28;20128;-78
2023/10/17 10:05:57;;;;;;;13.80;8.80;;;;;;;;;;2082184;28;20037;-79
2023/10/17 10:07:19;;;;;;;13.40;8.35;;;;;;;;;;2082018;28;20036;-79
2023/10/17 10:08:40;;;;;;;10.88;7.75;;;;;;;;;;2082113;28;20052;-79
2023/10/17 10:10:03;;;;;;;12.10;8.85;;;;;;;;;;2079198;28;20048;-79